메인 페이지
METAR-TAF:

METAR-TAF

공항 :

인헤니에로 아에로나르띠꼬 엠브로시오 L.V. 타라벨라 국제공항

코르도바, 아르헨티나

위도: 31-19S, 경도: 064-13W, 고도: 484m

현재 날씨관측

예보는 49분 전, 02:00시(UTC)에 발표되었습니다.
3kt
온도 20°C
습도 94%
기압 1013 hPa
시정 10km 이상
1500m 미만 상공 구름 및 적란운 없음

METAR: SACO 130200Z 01003KT CAVOK 20/19 Q1013 NOSIG

시각: 23:49 (02:49 UTC)

예보

예보는 3 시간 49분 전, 23:00시(UTC)에 발표되었습니다.
예보 대상 시간: 13일 00시부터 13일 24시까지 (UTC)
북동5kt
시정 10km 이상
고도 2500ft 상공 구름 많음
일시적
13일 08시부터 13일 11시까지 (UTC)
15kt
시정: 5000m
고도 2000ft 상공 구름 많음
고도 3000ft 상공 흐림
고도 4000ft 상공 구름 조금, 적란운.

TAF: SACO 122300Z 1300/1324 05005KT 9999 BKN025 TX34/1318Z TN17/1310Z TEMPO 1308/1311 18015KT 5000 RASH/TS BKN020 OVC030 FEW040CB

4,000개 이상의 공항 관측 자료 및 예보 (METAR 및 TAF 보고).

지도상에서 검색 가능한 기상관측소가 노란 점과 빨간 점으로 표시되어 있습니다.

기상관측소 명을 보려면 표시 위로 마우스를 이동하세요.

날씨 관측과 예보를 보려면 클릭하세요.

지도 변경 : 확대하려면 엑스 표시가 있는 녹색 버튼, 축소하려면 빼기 표시가 있는 녹색 버튼, 다음 페이지의 지도를 보려면 녹색 화살표를 클릭하세요.


METAR-TAF: